Terminal Aerodrome Forecast
Issued by NWS

Home | Current Version | Previous Version | Text Only | Print | Product List | Glossary On
Versions: 1 2 3 4 5 6 7 8 9 10 11 12 13 14 15 16 17 18 19 20 21 22 23
000
FTUS42 KRAH 181720
TAFRWI
TAF
KRWI 181720Z 1818/1918 06006KT P6SM SCT250
     FM190600 10008KT P6SM OVC050
     FM191000 09003KT 4SM -RA BR OVC025
     FM191200 06004KT 1 1/2SM -RA BR OVC004
     FM191500 VRB04KT 1/2SM FG VV002=

USA.gov is the U.S. government's official web portal to all federal, state and local government web resources and services.